Time;durP1;ratioP1;P1;durP2;ratioP2;P2;SDS_P1;SDS_P2;PMS_P1;PMS_P2;Temp;Humidity;BMP_temperature;BMP_pressure;BME280_temperature;BME280_humidity;BME280_pressure;Samples;Min_cycle;Max_cycle;Signal;HPM_P1;HPM_P2
2023/06/10 03:18:03;;;;;;;5.13;2.60;;;17.50;78.50;;;;;;6232859;22;89424;-74
2023/06/10 03:20:29;;;;;;;5.80;2.95;;;17.40;78.20;;;;;;6248646;22;88607;-75
2023/06/10 03:22:55;;;;;;;6.70;2.83;;;17.40;78.30;;;;;;6249973;22;87474;-75
2023/06/10 03:25:21;;;;;;;4.78;3.08;;;17.40;78.90;;;;;;6249862;22;87566;-74
2023/06/10 03:27:46;;;;;;;6.20;3.08;;;17.40;78.90;;;;;;6249599;22;88196;-74
2023/06/10 03:30:14;;;;;;;6.95;3.10;;;17.40;79.30;;;;;;6224153;22;86984;-73
2023/06/10 03:32:40;;;;;;;4.78;2.50;;;17.40;79.70;;;;;;6250685;22;87259;-73
2023/06/10 03:35:07;;;;;;;6.32;2.55;;;17.40;79.60;;;;;;6249186;22;88517;-73
2023/06/10 03:37:32;;;;;;;6.10;3.10;;;17.40;79.90;;;;;;6250473;22;88310;-73
2023/06/10 03:39:58;;;;;;;4.57;2.78;;;17.40;79.50;;;;;;6223102;22;87290;-73
2023/06/10 03:42:24;;;;;;;6.07;3.42;;;17.50;79.40;;;;;;6250426;22;87402;-73
2023/06/10 03:44:50;;;;;;;6.72;3.03;;;17.60;78.90;;;;;;6249933;22;88578;-73
2023/06/10 03:47:16;;;;;;;6.53;3.50;;;17.60;78.80;;;;;;6249866;22;88255;-72
2023/06/10 03:49:42;;;;;;;4.82;2.95;;;17.60;78.60;;;;;;6250544;22;87524;-72
2023/06/10 03:52:08;;;;;;;6.43;2.83;;;17.70;78.40;;;;;;6250450;22;87336;-74
2023/06/10 03:54:36;;;;;;;8.43;2.97;;;17.90;78.10;;;;;;6250201;22;87662;-74
2023/06/10 03:57:02;;;;;;;4.78;2.90;;;18.20;76.80;;;;;;6250068;22;87841;-74
2023/06/10 03:59:28;;;;;;;4.82;2.75;;;18.50;74.80;;;;;;6250718;22;87203;-72
2023/06/10 04:01:54;;;;;;;6.63;3.20;;;18.80;73.40;;;;;;6222308;22;86864;-74
2023/06/10 04:04:20;;;;;;;5.07;3.13;;;19.00;72.00;;;;;;6249741;22;88425;-73
2023/06/10 04:06:46;;;;;;;5.25;3.38;;;19.30;71.40;;;;;;6249599;22;86982;-72
2023/06/10 04:09:12;;;;;;;6.55;3.40;;;19.60;70.50;;;;;;6249762;22;88384;-73
2023/06/10 04:11:38;;;;;;;7.90;3.67;;;20.00;69.20;;;;;;6250398;22;87140;-73
2023/06/10 04:14:04;;;;;;;5.85;3.67;;;20.40;68.00;;;;;;6249941;22;88448;-71
2023/06/10 04:16:29;;;;;;;5.88;3.58;;;20.90;67.00;;;;;;6243365;22;87849;-72
2023/06/10 04:18:55;;;;;;;6.20;3.65;;;21.40;65.60;;;;;;6219003;22;87087;-73
2023/06/10 04:21:21;;;;;;;8.60;4.60;;;21.80;64.00;;;;;;6219426;22;87352;-71
2023/06/10 04:23:47;;;;;;;8.52;3.83;;;22.00;63.40;;;;;;6219005;22;88602;-71
2023/06/10 04:26:13;;;;;;;6.03;3.80;;;22.50;62.20;;;;;;6219491;22;87627;-71
2023/06/10 04:28:39;;;;;;;6.30;3.10;;;23.00;62.20;;;;;;6218908;22;87241;-71
2023/06/10 04:31:04;;;;;;;7.80;4.18;;;23.50;60.30;;;;;;6220041;22;87421;-73
2023/06/10 04:33:31;;;;;;;7.00;4.50;;;23.70;59.50;;;;;;6217884;22;88273;-72
2023/06/10 04:35:57;;;;;;;8.07;4.18;;;24.20;59.10;;;;;;6219170;22;88343;-72
2023/06/10 04:38:23;;;;;;;7.45;4.25;;;24.60;58.90;;;;;;6218403;22;87297;-73
2023/06/10 04:40:49;;;;;;;6.00;4.22;;;24.90;58.00;;;;;;6219231;22;87344;-73
2023/06/10 04:43:14;;;;;;;8.75;4.25;;;25.30;57.60;;;;;;6218939;22;88194;-70
2023/06/10 04:45:44;;;;;;;6.88;4.68;;;25.50;56.90;;;;;;6219250;22;87823;-71
2023/06/10 04:48:10;;;;;;;7.47;4.38;;;25.70;56.70;;;;;;6218969;22;87501;-71
2023/06/10 04:50:37;;;;;;;6.82;3.85;;;26.00;55.80;;;;;;6220159;22;86620;-70
2023/06/10 04:53:02;;;;;;;5.65;4.28;;;26.10;55.50;;;;;;6218792;22;87550;-70
2023/06/10 04:55:28;;;;;;;6.60;4.57;;;26.20;54.90;;;;;;6218957;22;87554;-70
2023/06/10 04:57:54;;;;;;;7.20;4.25;;;26.50;55.00;;;;;;6218116;22;88310;-73
2023/06/10 05:00:20;;;;;;;8.27;4.80;;;27.00;53.60;;;;;;6219710;22;87321;-73
2023/06/10 05:02:49;;;;;;;8.15;4.78;;;27.40;53.40;;;;;;6218641;22;87850;-72
2023/06/10 05:05:18;;;;;;;;;;;27.70;52.90;;;;;;6219513;22;87165;-71
2023/06/10 05:07:43;;;;;;;9.98;5.18;;;28.00;52.50;;;;;;6220451;22;87268;-72
2023/06/10 05:10:10;;;;;;;6.53;4.45;;;28.10;51.60;;;;;;6219564;22;87222;-73
2023/06/10 05:12:35;;;;;;;7.78;4.88;;;28.10;51.20;;;;;;6218539;22;87607;-73
2023/06/10 05:15:01;;;;;;;6.13;5.18;;;28.00;50.60;;;;;;6219490;22;86577;-72
2023/06/10 05:17:28;;;;;;;7.50;4.80;;;28.20;50.80;;;;;;6218274;22;87273;-72
2023/06/10 05:19:53;;;;;;;7.43;5.18;;;28.60;50.00;;;;;;6219525;22;87433;-71
2023/06/10 05:22:19;;;;;;;9.15;4.45;;;28.70;50.00;;;;;;6218095;22;89356;-70
2023/06/10 05:24:45;;;;;;;8.85;4.97;;;29.30;49.40;;;;;;6218748;22;88716;-71
2023/06/10 05:27:11;;;;;;;6.75;5.05;;;29.50;48.50;;;;;;6219271;22;87012;-70
2023/06/10 05:29:37;;;;;;;7.82;5.78;;;29.60;48.20;;;;;;6219083;22;87407;-71
2023/06/10 05:32:03;;;;;;;8.73;5.35;;;30.00;47.90;;;;;;6218682;22;88208;-71
2023/06/10 05:34:30;;;;;;;6.57;5.47;;;30.30;47.70;;;;;;6218621;22;87698;-72
2023/06/10 05:36:55;;;;;;;5.80;5.15;;;30.60;47.20;;;;;;6219001;22;87209;-72
2023/06/10 05:39:21;;;;;;;8.10;5.30;;;31.00;46.50;;;;;;6219992;22;86658;-72
2023/06/10 05:41:46;;;;;;;7.35;5.68;;;31.10;46.80;;;;;;6218820;22;87620;-72
2023/06/10 05:44:12;;;;;;;8.05;5.00;;;30.80;46.00;;;;;;6218512;22;88272;-71
2023/06/10 05:46:38;;;;;;;10.75;5.63;;;30.10;47.60;;;;;;6218154;22;87977;-71
2023/06/10 05:49:03;;;;;;;7.70;6.13;;;29.30;48.40;;;;;;6219165;22;87366;-72
2023/06/10 05:51:29;;;;;;;10.00;5.53;;;28.10;50.60;;;;;;6191419;22;89655;-72
2023/06/10 05:53:55;;;;;;;5.97;4.50;;;28.20;51.60;;;;;;6191655;22;88138;-70
2023/06/10 05:56:23;;;;;;;7.10;4.90;;;28.60;50.70;;;;;;6219076;22;87260;-70
2023/06/10 05:58:49;;;;;;;8.52;5.68;;;29.00;49.60;;;;;;6219008;22;87336;-71
2023/06/10 06:01:15;;;;;;;8.63;5.78;;;30.10;48.10;;;;;;6219012;22;87488;-70
2023/06/10 06:03:41;;;;;;;5.95;5.22;;;30.80;46.50;;;;;;6218941;22;87427;-70
2023/06/10 06:06:06;;;;;;;10.57;6.25;;;31.80;45.00;;;;;;6219194;22;87411;-70
2023/06/10 06:08:32;;;;;;;7.63;4.65;;;31.80;44.40;;;;;;6218950;22;87315;-70
2023/06/10 06:10:58;;;;;;;9.10;5.90;;;31.90;45.60;;;;;;6217695;22;89262;-70
2023/06/10 06:13:24;;;;;;;9.57;5.25;;;31.70;45.30;;;;;;6218494;22;88643;-71
2023/06/10 06:15:50;;;;;;;10.25;6.18;;;31.00;45.70;;;;;;6219020;22;87293;-71
2023/06/10 06:18:16;;;;;;;8.93;5.45;;;30.10;46.80;;;;;;6218471;22;87286;-72
2023/06/10 06:20:41;;;;;;;8.93;6.03;;;30.40;47.70;;;;;;6218535;22;88066;-72
2023/06/10 06:23:09;;;;;;;8.75;6.05;;;31.10;45.90;;;;;;6218339;22;87397;-72
2023/06/10 06:25:35;;;;;;;6.70;6.00;;;31.70;45.50;;;;;;6218770;22;87304;-73
2023/06/10 06:28:02;;;;;;;8.43;6.18;;;32.30;45.50;;;;;;6218901;22;86858;-73
2023/06/10 06:30:27;;;;;;;11.05;6.80;;;32.90;43.70;;;;;;6218035;22;88233;-73
2023/06/10 06:32:53;;;;;;;9.63;6.47;;;33.50;44.70;;;;;;6218346;22;87753;-71
2023/06/10 06:35:19;;;;;;;8.35;5.97;;;33.90;42.50;;;;;;6218255;22;88305;-70
2023/06/10 06:37:44;;;;;;;8.23;6.40;;;34.80;42.20;;;;;;6217314;22;88071;-72
2023/06/10 06:40:11;;;;;;;10.85;6.80;;;35.50;41.00;;;;;;6216457;22;88494;-75
2023/06/10 06:42:36;;;;;;;13.52;7.32;;;34.70;40.90;;;;;;6218602;22;87316;-72
2023/06/10 06:45:02;;;;;;;11.23;5.90;;;34.10;41.50;;;;;;6218081;22;87321;-74
2023/06/10 06:47:28;;;;;;;7.47;6.38;;;33.30;42.00;;;;;;6219008;22;87398;-75
2023/06/10 06:49:54;;;;;;;8.20;6.65;;;32.90;42.30;;;;;;6217601;22;87592;-73
2023/06/10 06:52:19;;;;;;;10.82;5.85;;;33.50;42.90;;;;;;6219268;22;86628;-79
2023/06/10 06:54:45;;;;;;;10.75;7.97;;;33.90;42.50;;;;;;6217430;22;87351;-79
2023/06/10 06:57:11;;;;;;;8.25;6.43;;;34.50;41.60;;;;;;6218432;22;87314;-70
2023/06/10 06:59:36;;;;;;;7.95;6.53;;;33.30;42.30;;;;;;6217191;22;88215;-73
2023/06/10 07:02:03;;;;;;;7.22;6.18;;;31.60;44.00;;;;;;6219116;22;89234;-76
2023/06/10 07:04:30;;;;;;;7.65;6.63;;;30.80;45.60;;;;;;6219943;22;86977;-77
2023/06/10 07:06:55;;;;;;;9.32;6.47;;;29.60;47.60;;;;;;6218622;22;87229;-71
2023/06/10 07:09:21;;;;;;;9.10;6.93;;;31.40;46.80;;;;;;6218327;22;88948;-72
2023/06/10 07:11:47;;;;;;;8.63;6.30;;;32.40;43.90;;;;;;6217897;22;87783;-72
2023/06/10 07:14:13;;;;;;;14.95;7.35;;;32.90;43.00;;;;;;6218910;22;87305;-71
2023/06/10 07:16:38;;;;;;;9.63;6.20;;;33.30;42.90;;;;;;6218701;22;86492;-72
2023/06/10 07:19:04;;;;;;;8.57;7.03;;;34.80;41.80;;;;;;6218228;22;88105;-71
2023/06/10 07:21:30;;;;;;;9.80;7.75;;;36.30;40.40;;;;;;6218503;22;87230;-73
2023/06/10 07:23:56;;;;;;;11.52;7.75;;;36.90;38.70;;;;;;6217130;22;88171;-72
2023/06/10 07:26:23;;;;;;;8.02;7.25;;;36.50;38.70;;;;;;6219367;22;87098;-73
2023/06/10 07:28:48;;;;;;;7.95;7.15;;;37.00;38.50;;;;;;6217619;22;88157;-75
2023/06/10 07:31:14;;;;;;;10.10;6.57;;;37.30;38.10;;;;;;6219657;22;88325;-73
2023/06/10 07:33:40;;;;;;;8.02;7.28;;;37.20;37.60;;;;;;6219775;22;87538;-74
2023/06/10 07:36:06;;;;;;;7.07;6.25;;;38.00;37.40;;;;;;6218896;22;88329;-74
2023/06/10 07:38:32;;;;;;;9.75;7.25;;;38.50;37.10;;;;;;6219466;22;87781;-71
2023/06/10 07:40:57;;;;;;;9.60;7.68;;;38.10;36.50;;;;;;6218758;22;87985;-74
2023/06/10 07:43:24;;;;;;;10.65;8.20;;;38.60;36.90;;;;;;6216795;22;87306;-74
2023/06/10 07:45:49;;;;;;;10.15;8.70;;;38.90;36.70;;;;;;6217344;22;87228;-74
2023/06/10 07:48:15;;;;;;;9.20;8.07;;;39.30;36.20;;;;;;6215122;22;89025;-74
2023/06/10 07:50:41;;;;;;;9.90;8.88;;;39.40;35.50;;;;;;6217220;22;88481;-73
2023/06/10 07:53:07;;;;;;;11.10;8.73;;;39.80;35.80;;;;;;6189273;22;87431;-74
2023/06/10 07:55:32;;;;;;;9.02;8.18;;;40.30;35.70;;;;;;6216188;22;87503;-73
2023/06/10 07:57:58;;;;;;;11.88;9.35;;;40.60;36.30;;;;;;6215294;22;87988;-75
2023/06/10 08:00:24;;;;;;;7.65;6.63;;;41.10;34.50;;;;;;6215308;22;87327;-75
2023/06/10 08:02:50;;;;;;;11.38;8.55;;;41.00;34.50;;;;;;6216980;22;88336;-75
2023/06/10 08:05:16;;;;;;;10.73;8.48;;;41.30;34.70;;;;;;6217457;22;86556;-74
2023/06/10 08:07:42;;;;;;;9.93;8.85;;;40.90;34.10;;;;;;6217659;22;87646;-73
2023/06/10 08:10:08;;;;;;;10.98;9.75;;;41.10;34.90;;;;;;6216849;22;87739;-74
2023/06/10 08:12:34;;;;;;;10.70;8.73;;;41.60;33.90;;;;;;6216437;22;88149;-74
2023/06/10 08:15:01;;;;;;;9.73;8.80;;;41.30;34.20;;;;;;6217297;22;87242;-73
2023/06/10 08:17:26;;;;;;;9.68;8.68;;;41.40;33.60;;;;;;6214928;22;87484;-73
2023/06/10 08:19:52;;;;;;;11.23;10.02;;;41.50;33.40;;;;;;6215543;22;88511;-73
2023/06/10 08:22:18;;;;;;;10.40;9.30;;;41.60;33.60;;;;;;6214477;22;87380;-74
2023/06/10 08:24:44;;;;;;;11.88;10.77;;;41.30;34.60;;;;;;6216539;22;87411;-71
2023/06/10 08:27:10;;;;;;;11.80;9.80;;;41.40;33.60;;;;;;6214863;22;87413;-71
2023/06/10 08:29:36;;;;;;;11.23;10.13;;;41.00;34.10;;;;;;6218080;22;87586;-73
2023/06/10 08:32:02;;;;;;;10.15;8.88;;;41.10;33.20;;;;;;6216990;22;87297;-71
2023/06/10 08:34:27;;;;;;;10.20;9.15;;;41.20;33.20;;;;;;6218216;22;87442;-71
2023/06/10 08:36:55;;;;;;;11.07;10.07;;;41.70;33.80;;;;;;6217029;22;88475;-71
2023/06/10 08:39:22;;;;;;;11.27;10.27;;;42.10;32.90;;;;;;6214101;22;87830;-73
2023/06/10 08:42:15;;;;;;;10.50;8.65;;;41.80;32.50;;;;;;6215922;22;87393;-70
2023/06/10 08:44:42;;;;;;;10.02;8.88;;;41.80;32.60;;;;;;6215504;22;87401;-73
2023/06/10 08:47:17;;;;;;;12.70;9.50;;;41.90;31.60;;;;;;6215354;22;88624;-73
2023/06/10 08:49:46;;;;;;;10.55;6.45;;;41.80;32.40;;;;;;6216420;22;87260;-72
2023/06/10 08:52:20;;;;;;;10.63;9.50;;;42.30;33.00;;;;;;6216234;22;87245;-72
2023/06/10 08:54:54;;;;;;;9.70;8.80;;;42.60;31.30;;;;;;6217130;22;86298;-73
2023/06/10 08:57:21;;;;;;;;;;;43.20;32.70;;;;;;6217636;22;87531;-71
2023/06/10 08:59:47;;;;;;;10.43;9.43;;;43.30;31.40;;;;;;6217883;22;87434;-71
2023/06/10 09:02:15;;;;;;;11.75;10.35;;;43.10;31.30;;;;;;6217052;22;88240;-71
2023/06/10 09:04:43;;;;;;;11.15;9.35;;;43.50;31.90;;;;;;6217180;22;87302;-71
2023/06/10 09:07:09;;;;;;;12.02;10.07;;;44.00;31.60;;;;;;6215144;22;88459;-71
2023/06/10 09:09:35;;;;;;;11.30;9.48;;;43.70;31.60;;;;;;6215173;22;88201;-74
2023/06/10 09:12:01;;;;;;;12.98;11.05;;;44.00;32.60;;;;;;6216428;22;87432;-72
2023/06/10 09:14:27;;;;;;;9.68;8.77;;;43.70;31.90;;;;;;6214954;22;87579;-72
2023/06/10 09:16:56;;;;;;;13.27;10.73;;;43.80;31.40;;;;;;6217851;22;87809;-70
2023/06/10 09:19:24;;;;;;;13.98;12.07;;;44.30;32.00;;;;;;6218227;22;87856;-71
2023/06/10 09:21:49;;;;;;;12.52;10.00;;;44.20;31.70;;;;;;6217808;22;87437;-70
2023/06/10 09:24:15;;;;;;;12.95;11.75;;;44.50;31.00;;;;;;6218567;22;87370;-71
2023/06/10 09:26:42;;;;;;;11.40;10.40;;;44.30;31.40;;;;;;6217792;22;89403;-70
2023/06/10 09:29:09;;;;;;;10.15;8.95;;;44.60;31.00;;;;;;6217508;22;88717;-71
2023/06/10 09:31:36;;;;;;;11.45;9.25;;;44.00;31.10;;;;;;6219108;22;87416;-72
2023/06/10 09:34:13;;;;;;;12.30;10.23;;;44.40;31.50;;;;;;6219131;22;87461;-70
2023/06/10 09:36:40;;;;;;;11.40;10.35;;;44.10;31.70;;;;;;6217709;22;87493;-71
2023/06/10 09:39:15;;;;;;;11.30;10.10;;;43.30;31.10;;;;;;6218169;22;87989;-71
2023/06/10 09:41:41;;;;;;;10.57;9.52;;;43.70;31.20;;;;;;6191441;22;87599;-70
2023/06/10 09:44:18;;;;;;;11.32;9.00;;;42.50;31.40;;;;;;6219625;22;86725;-71
2023/06/10 09:46:50;;;;;;;9.38;8.32;;;43.00;31.80;;;;;;6218868;22;88613;-71
2023/06/10 09:49:16;;;;;;;11.32;9.73;;;43.20;32.30;;;;;;6218321;22;87790;-70
2023/06/10 09:51:53;;;;;;;10.75;9.10;;;42.90;31.40;;;;;;6218533;22;88338;-71
2023/06/10 09:54:19;;;;;;;9.07;7.68;;;43.10;32.00;;;;;;6219270;22;87295;-70
2023/06/10 09:56:50;;;;;;;8.85;7.93;;;42.90;32.70;;;;;;6218406;22;88124;-70
2023/06/10 09:59:16;;;;;;;9.48;8.38;;;42.50;31.20;;;;;;6218677;22;87411;-70
2023/06/10 10:01:42;;;;;;;8.10;7.13;;;41.20;32.80;;;;;;6219190;22;87047;-70
2023/06/10 10:04:07;;;;;;;11.98;7.35;;;40.20;33.90;;;;;;6218792;22;88570;-70
2023/06/10 10:06:35;;;;;;;7.28;6.57;;;39.20;34.70;;;;;;6218435;22;88100;-69
2023/06/10 10:09:01;;;;;;;7.50;5.70;;;38.10;36.40;;;;;;6218919;22;87411;-70
2023/06/10 10:11:27;;;;;;;10.48;6.70;;;37.50;37.40;;;;;;6218688;22;87410;-70
2023/06/10 10:13:53;;;;;;;8.70;6.25;;;36.80;39.40;;;;;;6219128;22;87256;-70
2023/06/10 10:16:40;;;;;;;6.90;6.20;;;36.00;37.40;;;;;;6217239;22;88487;-69
2023/06/10 10:19:36;;;;;;;11.63;5.63;;;35.30;39.10;;;;;;6218335;22;89420;-69
2023/06/10 10:22:09;;;;;;;5.65;4.78;;;34.40;39.90;;;;;;6216447;22;87264;-70
2023/06/10 10:24:40;;;;;;;6.47;5.43;;;33.80;41.10;;;;;;6218458;22;87124;-69
2023/06/10 10:27:17;;;;;;;5.07;3.80;;;32.90;41.60;;;;;;6218341;22;88133;-70
2023/06/10 10:29:47;;;;;;;9.23;4.55;;;32.40;43.00;;;;;;6218603;22;88145;-69
2023/06/10 10:32:14;;;;;;;6.82;5.18;;;32.30;42.90;;;;;;6217055;22;87302;-70
2023/06/10 10:34:52;;;;;;;5.95;4.63;;;32.10;41.40;;;;;;6219026;22;86539;-70
2023/06/10 10:37:20;;;;;;;7.97;4.40;;;31.70;43.40;;;;;;6217851;22;88431;-70
2023/06/10 10:39:47;;;;;;;7.55;5.03;;;31.40;43.80;;;;;;6218250;22;88681;-70
2023/06/10 10:42:13;;;;;;;8.27;4.90;;;31.30;43.40;;;;;;6217943;22;87851;-70
2023/06/10 10:44:40;;;;;;;7.35;4.43;;;31.00;45.20;;;;;;6218761;22;87405;-69
2023/06/10 10:47:09;;;;;;;5.82;4.68;;;30.90;45.90;;;;;;6218127;22;88056;-69
2023/06/10 10:49:36;;;;;;;9.15;5.10;;;30.90;47.10;;;;;;6218137;22;87761;-69
2023/06/10 10:52:06;;;;;;;4.75;3.95;;;31.00;46.00;;;;;;6218271;22;87241;-70
2023/06/10 10:54:33;;;;;;;5.95;4.50;;;31.00;46.10;;;;;;6218792;22;87238;-70
2023/06/10 10:57:20;;;;;;;6.18;4.53;;;31.00;45.20;;;;;;6218567;22;88448;-69
2023/06/10 10:59:48;;;;;;;5.35;4.15;;;30.90;43.70;;;;;;6218264;22;87002;-70
2023/06/10 11:02:18;;;;;;;5.13;3.92;;;31.00;48.30;;;;;;6218108;22;87351;-70
2023/06/10 11:04:48;;;;;;;6.97;4.68;;;31.10;47.30;;;;;;6218990;22;87337;-70
2023/06/10 11:07:19;;;;;;;4.72;3.85;;;31.00;44.70;;;;;;6217997;22;88366;-70
2023/06/10 11:10:10;;;;;;;8.65;3.97;;;31.00;45.20;;;;;;6217840;22;89123;-71
2023/06/10 11:12:52;;;;;;;8.00;3.90;;;31.00;46.00;;;;;;6218279;22;87550;-70
2023/06/10 11:15:23;;;;;;;6.22;3.63;;;31.00;46.10;;;;;;6218739;22;87372;-69
2023/06/10 11:18:11;;;;;;;6.20;3.55;;;30.90;47.30;;;;;;6217703;22;87573;-69
2023/06/10 11:20:48;;;;;;;5.97;4.05;;;31.00;47.10;;;;;;6218173;22;87249;-69
2023/06/10 11:23:32;;;;;;;8.18;4.20;;;31.10;44.70;;;;;;6218544;22;87149;-69
2023/06/10 11:26:27;;;;;;;10.93;2.67;;;31.10;46.50;;;;;;6219242;22;86857;-70
2023/06/10 11:28:53;;;;;;;4.22;3.67;;;31.10;45.40;;;;;;6206769;22;88022;-69
2023/06/10 11:31:39;;;;;;;6.82;3.58;;;30.90;43.50;;;;;;6218023;22;87750;-70
2023/06/10 11:34:06;;;;;;;8.57;4.15;;;30.70;46.00;;;;;;6216408;22;88198;-70
2023/06/10 11:36:36;;;;;;;10.02;4.35;;;30.80;47.30;;;;;;6217750;22;87066;-69
2023/06/10 11:39:05;;;;;;;6.32;4.05;;;30.70;45.10;;;;;;6217582;22;87577;-68
2023/06/10 11:41:32;;;;;;;7.95;4.25;;;30.50;46.40;;;;;;6217775;22;87205;-69
2023/06/10 11:44:04;;;;;;;9.32;4.28;;;30.50;47.00;;;;;;6218477;22;87205;-69
2023/06/10 11:46:29;;;;;;;4.20;3.42;;;30.60;46.90;;;;;;6219608;22;87030;-69
2023/06/10 11:48:57;;;;;;;7.68;4.25;;;30.60;46.10;;;;;;6218914;22;87838;-69
2023/06/10 11:51:27;;;;;;;7.70;3.75;;;30.80;44.60;;;;;;6219915;22;87188;-71
2023/06/10 11:53:54;;;;;;;6.32;4.20;;;30.90;48.10;;;;;;6219507;22;87369;-69
2023/06/10 11:56:25;;;;;;;6.28;4.10;;;31.10;47.20;;;;;;6219425;22;87447;-69
2023/06/10 11:59:04;;;;;;;13.68;4.38;;;31.00;46.00;;;;;;6218146;22;88802;-70
2023/06/10 12:01:31;;;;;;;9.13;4.55;;;31.00;47.90;;;;;;6218717;22;88805;-69
2023/06/10 12:04:09;;;;;;;6.80;4.20;;;31.10;48.10;;;;;;6192251;22;87813;-70
2023/06/10 12:06:43;;;;;;;6.78;4.18;;;31.10;47.50;;;;;;6219731;22;87273;-70
2023/06/10 12:09:25;;;;;;;5.03;3.97;;;31.20;48.60;;;;;;6218948;22;87562;-69
2023/06/10 12:12:12;;;;;;;18.08;5.22;;;31.20;48.60;;;;;;6218806;22;87668;-69
2023/06/10 12:14:58;;;;;;;8.13;3.97;;;31.30;47.80;;;;;;6218995;22;87398;-70
2023/06/10 12:17:36;;;;;;;8.55;5.53;;;31.40;47.90;;;;;;6220002;22;86839;-70
2023/06/10 12:20:05;;;;;;;6.78;5.22;;;31.30;45.10;;;;;;6218999;22;88031;-70
2023/06/10 12:22:42;;;;;;;5.70;4.53;;;31.20;48.00;;;;;;6219295;22;87429;-69
2023/06/10 12:25:09;;;;;;;8.90;4.20;;;31.20;48.60;;;;;;6218332;22;88145;-70
2023/06/10 12:27:36;;;;;;;5.97;3.97;;;31.30;47.40;;;;;;6219542;22;87074;-71
2023/06/10 12:30:04;;;;;;;7.68;4.63;;;31.20;47.20;;;;;;6219112;22;87932;-70
2023/06/10 12:32:40;;;;;;;8.38;4.93;;;31.10;46.60;;;;;;6218869;22;87397;-70
2023/06/10 12:35:07;;;;;;;5.30;3.10;;;31.10;48.50;;;;;;6191910;22;87338;-70
2023/06/10 12:37:33;;;;;;;5.80;4.60;;;31.20;48.90;;;;;;6219601;22;87242;-70
2023/06/10 12:40:01;;;;;;;8.50;4.95;;;31.20;48.40;;;;;;6218926;22;88527;-70
2023/06/10 12:42:26;;;;;;;8.15;5.05;;;31.10;47.00;;;;;;6219722;22;87734;-71
2023/06/10 12:45:00;;;;;;;6.63;5.35;;;31.00;47.60;;;;;;6219241;22;87404;-70
2023/06/10 12:47:34;;;;;;;7.68;4.85;;;31.00;48.30;;;;;;6219237;22;87493;-70
2023/06/10 12:50:01;;;;;;;8.13;5.03;;;31.10;46.90;;;;;;6217933;22;88898;-70
2023/06/10 12:52:27;;;;;;;6.95;5.15;;;31.00;46.30;;;;;;6218711;22;88135;-70
2023/06/10 12:54:54;;;;;;;6.97;4.93;;;31.00;48.10;;;;;;6218839;22;87127;-70
2023/06/10 12:57:21;;;;;;;7.47;4.30;;;31.00;48.30;;;;;;6192438;22;87421;-70
2023/06/10 12:59:52;;;;;;;6.88;4.50;;;31.00;47.10;;;;;;6218554;22;88188;-70
2023/06/10 13:02:23;;;;;;;5.38;3.67;;;31.00;46.70;;;;;;6218974;22;87553;-71
2023/06/10 13:04:49;;;;;;;6.78;4.90;;;30.90;45.90;;;;;;6219427;22;87467;-70
2023/06/10 13:07:15;;;;;;;7.78;3.92;;;30.70;47.20;;;;;;6219889;22;86558;-71
2023/06/10 13:09:41;;;;;;;6.10;3.95;;;30.80;48.10;;;;;;6218973;22;87904;-70
2023/06/10 13:12:08;;;;;;;8.48;4.05;;;30.70;48.90;;;;;;6218697;22;87640;-70
2023/06/10 13:14:33;;;;;;;5.55;3.13;;;30.80;48.60;;;;;;6218572;22;87881;-71
2023/06/10 13:16:59;;;;;;;7.05;4.25;;;30.90;48.90;;;;;;6218894;22;87529;-71
2023/06/10 13:19:26;;;;;;;10.70;4.47;;;31.00;47.90;;;;;;6219292;22;87579;-70
2023/06/10 13:21:52;;;;;;;6.38;4.25;;;31.00;47.80;;;;;;6218642;22;87320;-70
2023/06/10 13:24:18;;;;;;;6.28;4.95;;;31.00;47.80;;;;;;6218491;22;88222;-70
2023/06/10 13:26:44;;;;;;;5.22;4.45;;;31.00;48.20;;;;;;6192328;22;86991;-70
2023/06/10 13:29:13;;;;;;;6.25;3.40;;;31.00;46.70;;;;;;6218976;22;87677;-70
2023/06/10 13:31:40;;;;;;;5.75;4.70;;;30.80;46.40;;;;;;6219368;22;87211;-70
2023/06/10 13:34:05;;;;;;;6.68;4.60;;;30.70;46.30;;;;;;6218654;22;87244;-70
2023/06/10 13:36:32;;;;;;;5.57;3.85;;;30.70;49.00;;;;;;6219113;22;87578;-69
2023/06/10 13:38:57;;;;;;;6.28;4.45;;;30.70;46.20;;;;;;6218633;22;88528;-70
2023/06/10 13:41:23;;;;;;;5.82;4.05;;;30.50;48.20;;;;;;6218787;22;88693;-69
2023/06/10 13:43:49;;;;;;;5.60;4.05;;;30.40;46.50;;;;;;6218644;22;87045;-70
2023/06/10 13:46:14;;;;;;;6.43;3.97;;;30.30;47.80;;;;;;6219175;22;87440;-70
2023/06/10 13:48:40;;;;;;;5.38;3.60;;;30.30;46.70;;;;;;6218279;22;87545;-70
2023/06/10 13:51:06;;;;;;;5.55;2.70;;;30.30;46.00;;;;;;6218671;22;87759;-70
2023/06/10 13:53:32;;;;;;;4.78;3.22;;;30.30;47.80;;;;;;6219242;22;87568;-70
2023/06/10 13:55:58;;;;;;;6.53;3.47;;;30.20;47.50;;;;;;6219514;22;86657;-70
2023/06/10 13:58:23;;;;;;;5.90;4.13;;;30.30;47.20;;;;;;6218665;22;88406;-70
2023/06/10 14:00:49;;;;;;;4.63;3.60;;;30.30;46.50;;;;;;6218519;22;87711;-71
2023/06/10 14:03:15;;;;;;;4.25;3.75;;;30.30;46.30;;;;;;6218025;22;88436;-71
2023/06/10 14:05:41;;;;;;;4.82;3.80;;;30.40;46.90;;;;;;6218773;22;87244;-72
2023/06/10 14:08:07;;;;;;;6.47;3.97;;;30.50;47.70;;;;;;6218337;22;87950;-71
2023/06/10 14:10:33;;;;;;;6.80;3.10;;;30.70;47.30;;;;;;6218257;22;88020;-70
2023/06/10 14:13:00;;;;;;;5.43;3.25;;;30.70;46.40;;;;;;6218835;22;87691;-71
2023/06/10 14:15:25;;;;;;;6.35;2.63;;;30.80;46.20;;;;;;6219084;22;87466;-71
2023/06/10 14:17:51;;;;;;;5.53;3.92;;;30.70;47.40;;;;;;6217051;22;88839;-71
2023/06/10 14:20:17;;;;;;;5.88;3.28;;;30.70;46.20;;;;;;6219068;22;87848;-71
2023/06/10 14:22:42;;;;;;;4.82;3.00;;;30.60;46.70;;;;;;6219517;22;87357;-70
2023/06/10 14:25:08;;;;;;;5.43;3.60;;;30.60;46.40;;;;;;6218629;22;87521;-70
2023/06/10 14:27:34;;;;;;;5.15;4.03;;;30.70;46.90;;;;;;6217781;22;88929;-71
2023/06/10 14:30:00;;;;;;;6.35;3.53;;;30.70;45.90;;;;;;6217989;22;88622;-70
2023/06/10 14:32:26;;;;;;;4.93;3.60;;;30.60;46.60;;;;;;6218318;22;87337;-71
2023/06/10 14:34:51;;;;;;;5.95;3.80;;;30.70;47.20;;;;;;6218951;22;87407;-69
2023/06/10 14:37:17;;;;;;;5.20;3.28;;;30.50;46.50;;;;;;6217989;22;87511;-70
2023/06/10 14:39:43;;;;;;;4.85;4.05;;;30.40;45.30;;;;;;6218560;22;88051;-73
2023/06/10 14:42:08;;;;;;;3.90;3.10;;;30.20;46.00;;;;;;6218797;22;87053;-71
2023/06/10 14:44:34;;;;;;;5.78;3.58;;;30.20;46.50;;;;;;6219683;22;86452;-70
2023/06/10 14:47:00;;;;;;;5.55;3.75;;;30.10;47.20;;;;;;6217490;22;88235;-69
2023/06/10 14:49:25;;;;;;;4.43;3.40;;;30.00;46.60;;;;;;6218321;22;87353;-71
2023/06/10 14:51:51;;;;;;;6.68;3.53;;;29.90;46.80;;;;;;6217693;22;88181;-71
2023/06/10 14:54:17;;;;;;;6.07;3.30;;;30.00;47.50;;;;;;6219101;22;87732;-71
2023/06/10 14:56:42;;;;;;;4.28;3.08;;;30.10;48.20;;;;;;6218338;22;88064;-71
2023/06/10 14:59:08;;;;;;;6.18;3.25;;;30.10;46.80;;;;;;6217782;22;88337;-71
2023/06/10 15:01:34;;;;;;;9.20;3.50;;;29.90;47.40;;;;;;6218755;22;87397;-70
2023/06/10 15:03:59;;;;;;;4.50;3.05;;;29.90;47.00;;;;;;6218647;22;87255;-71
2023/06/10 15:06:25;;;;;;;7.05;3.40;;;29.90;47.40;;;;;;6217937;22;88593;-70
2023/06/10 15:08:51;;;;;;;4.57;3.00;;;29.90;47.30;;;;;;6217938;22;88079;-71
2023/06/10 15:11:17;;;;;;;4.95;3.17;;;29.90;46.80;;;;;;6218400;22;87539;-70
2023/06/10 15:13:43;;;;;;;6.13;3.05;;;29.90;47.30;;;;;;6218428;22;87150;-70
2023/06/10 15:16:08;;;;;;;3.30;2.85;;;30.00;47.80;;;;;;6216742;22;89046;-70
2023/06/10 15:18:34;;;;;;;4.93;2.13;;;30.00;46.70;;;;;;6218423;22;88083;-70
2023/06/10 15:21:00;;;;;;;4.43;3.15;;;30.00;46.40;;;;;;6219828;22;87197;-71
2023/06/10 15:23:26;;;;;;;3.83;2.67;;;30.00;46.90;;;;;;6219752;22;87594;-70
2023/06/10 15:25:51;;;;;;;4.70;3.38;;;29.90;45.50;;;;;;6219317;22;88133;-71
2023/06/10 15:28:17;;;;;;;4.22;3.08;;;29.90;45.80;;;;;;6218828;22;87085;-69
2023/06/10 15:30:43;;;;;;;5.10;2.25;;;29.80;45.60;;;;;;6219351;22;87489;-71
2023/06/10 15:33:08;;;;;;;7.15;3.38;;;29.80;46.10;;;;;;6219928;22;86609;-70
2023/06/10 15:35:34;;;;;;;4.82;2.63;;;29.90;46.90;;;;;;6219298;22;87548;-70
2023/06/10 15:38:00;;;;;;;3.55;2.20;;;29.90;46.20;;;;;;6219269;22;87282;-71
2023/06/10 15:40:26;;;;;;;5.88;3.10;;;29.80;44.90;;;;;;6192105;22;88257;-71
2023/06/10 15:42:51;;;;;;;5.07;2.85;;;29.90;47.00;;;;;;6219943;22;87500;-70
2023/06/10 15:45:17;;;;;;;5.25;2.83;;;29.70;47.10;;;;;;6219307;22;87285;-70
2023/06/10 15:47:43;;;;;;;4.78;2.63;;;29.60;47.00;;;;;;6219058;22;87302;-70
2023/06/10 15:50:09;;;;;;;7.68;2.38;;;29.60;46.40;;;;;;6219448;22;87245;-70
2023/06/10 15:52:35;;;;;;;8.88;2.63;;;29.60;46.30;;;;;;6219591;22;87246;-71
2023/06/10 15:55:02;;;;;;;7.45;2.70;;;29.50;46.60;;;;;;6219237;22;88953;-70
2023/06/10 15:57:28;;;;;;;5.32;2.60;;;29.50;46.40;;;;;;6219749;22;86896;-70
2023/06/10 15:59:54;;;;;;;4.28;2.53;;;29.60;47.20;;;;;;6219045;22;87332;-71
2023/06/10 16:02:19;;;;;;;4.20;2.58;;;29.50;45.00;;;;;;6219910;22;87394;-71
2023/06/10 16:04:45;;;;;;;3.55;2.42;;;29.50;46.30;;;;;;6218155;22;88426;-71